Main page
METAR-TAF:

METAR-TAF

Airports :

AAC Middle Wallop

Middle Wallop, England

latitude: 51-09N, longitude: 001-34W, elevation: 91 m

Current weather observation

The report was made 21 minutes ago, at 08:50 UTC
Wind 2 kt from the South
Temperature 17°C
Humidity 77%
Pressure 1027 hPa
Visibility 10 km or more
Few clouds at a height of 1500 ft
Broken clouds at a height of 22000 ft

METAR: EGVP 210850Z 17002KT 9999 FEW015 BKN220 17/13 Q1027 NOSIG RMK BLU BLU

Time: 10:11 (09:11 UTC)

Forecast

The report was made 1 hour and 33 minutes ago, at 07:38 UTC
Forecast valid from 21 at 09 UTC to 21 at 18 UTC
Wind 7 kt from the South/Southwest
Visibility 10 km or more
Few clouds at a height of 1800 ft

TAF: EGVP 210738Z 2109/2118 21007KT 9999 FEW018

Weather observations and forecasts of more than 4000 airports (METAR and TAF reports).

The available stations are represented by yellow and red dots on the map.

Hover mouse over dot to see the name of the station.

Then click to see weather observations and forecasts.

To change the map : click on the green buttons with a black cross to zoom in, on the green button with a dash to zoom out, or on the green arrows for adjacent maps.


METAR-TAF: